Time;durP1;ratioP1;P1;durP2;ratioP2;P2;SDS_P1;SDS_P2;PMS_P1;PMS_P2;Temp;Humidity;BMP_temperature;BMP_pressure;BME280_temperature;BME280_humidity;BME280_pressure;Samples;Min_cycle;Max_cycle;Signal;HPM_P1;HPM_P2
2022/05/04 00:00:56;;;;;;;;;;;;;;;13.07;66.78;92742.22;2071770;69;20064;-72
2022/05/04 00:03:22;;;;;;;;;;;;;;;12.97;66.90;92748.09;2058661;69;20050;-68
2022/05/04 00:05:48;;;;;;;;;;;;;;;13.37;64.20;92743.06;2058645;69;20050;-68
2022/05/04 00:08:14;;;;;;;;;;;;;;;13.30;64.96;92737.75;2058553;69;20082;-69
2022/05/04 00:10:39;;;;;;;;;;;;;;;13.12;65.20;92743.91;2058437;69;20059;-72
2022/05/04 00:13:05;;;;;;;;;;;;;;;13.37;64.43;92739.53;2058667;69;20050;-72
2022/05/04 00:15:30;;;;;;;;;;;;;;;13.07;65.30;92733.00;2058598;69;20475;-67
2022/05/04 00:17:56;;;;;;;;;;;;;;;13.10;65.55;92740.97;2058735;69;20053;-68
2022/05/04 00:20:21;;;;;;;;;;;;;;;13.12;66.09;92737.50;2058554;69;20123;-69
2022/05/04 00:26:15;;;;;;;;;;;;;;;13.15;66.45;92724.97;2058607;69;20080;-70
2022/05/04 00:28:40;;;;;;;;;;;;;;;13.14;66.93;92720.66;2058854;69;20050;-68
2022/05/04 00:31:06;;;;;;;;;;;;;;;12.95;67.92;92724.63;2058687;69;20057;-69
2022/05/04 00:33:31;;;;;;;;;;;;;;;13.20;64.37;92726.63;2058674;69;20054;-69
2022/05/04 00:39:25;;;;;;;;;;;;;;;12.53;70.50;92721.00;2058742;69;20449;-69
2022/05/04 00:41:50;;;;;;;;;;;;;;;12.84;67.77;92714.91;2059183;69;20053;-68
2022/05/04 00:44:15;;;;;;;;;;;;;;;12.80;68.69;92711.84;2059182;69;20470;-69
2022/05/04 00:46:41;;;;;;;;;;;;;;;12.81;68.16;92716.13;2059121;69;20053;-69
2022/05/04 00:49:06;;;;;;;;;;;;;;;12.77;67.96;92712.38;2059191;69;20490;-68
2022/05/04 00:51:32;;;;;;;;;;;;;;;12.96;66.72;92712.69;2059194;69;20164;-70
2022/05/04 00:53:58;;;;;;;;;;;;;;;13.01;65.57;92713.63;2059120;69;20054;-70
2022/05/04 00:56:24;;;;;;;;;;;;;;;12.82;67.56;92714.03;2059164;69;20141;-71
2022/05/04 00:58:55;;;;;;;;;;;;;;;12.73;65.75;92724.19;2059332;69;20042;-70
2022/05/04 01:01:25;;;;;;;;;;;;;;;12.70;66.40;92722.63;2059203;69;20101;-72
2022/05/04 01:03:50;;;;;;;;;;;;;;;12.62;67.65;92720.09;2059169;69;20458;-69
2022/05/04 01:06:16;;;;;;;;;;;;;;;12.52;67.56;92730.84;2059024;69;20482;-68
2022/05/04 01:08:41;;;;;;;;;;;;;;;12.44;67.76;92736.03;2059220;69;20475;-72
2022/05/04 01:11:07;;;;;;;;;;;;;;;12.40;67.74;92733.72;2059094;69;20053;-69
2022/05/04 01:13:32;;;;;;;;;;;;;;;12.33;67.13;92734.03;2059033;69;20559;-67
2022/05/04 01:15:57;;;;;;;;;;;;;;;12.19;67.73;92737.53;2059364;69;20134;-67
2022/05/04 01:18:23;;;;;;;;;;;;;;;12.08;67.66;92735.50;2059065;69;20061;-70
2022/05/04 01:20:49;;;;;;;;;;;;;;;11.94;68.54;92737.53;2059040;69;20045;-69
2022/05/04 01:23:15;;;;;;;;;;;;;;;11.88;68.07;92742.84;2059098;69;20073;-69
2022/05/04 01:25:41;;;;;;;;;;;;;;;11.70;69.37;92743.22;2058958;69;20080;-69
2022/05/04 01:28:06;;;;;;;;;;;;;;;11.54;70.07;92739.47;2071963;69;20489;-71
2022/05/04 01:30:32;;;;;;;;;;;;;;;11.95;66.24;92734.09;2059092;69;20111;-71
2022/05/04 01:33:01;;;;;;;;;;;;;;;11.80;68.63;92740.25;2059083;69;20050;-72
2022/05/04 01:35:26;;;;;;;;;;;;;;;11.97;66.56;92741.94;2059039;69;20141;-69
2022/05/04 01:37:52;;;;;;;;;;;;;;;11.70;67.60;92745.31;2058949;69;20050;-68
2022/05/04 01:40:17;;;;;;;;;;;;;;;11.61;67.32;92738.47;2072114;69;20149;-69
2022/05/04 01:42:43;;;;;;;;;;;;;;;11.42;68.40;92733.16;2059023;69;20145;-68
2022/05/04 01:45:09;;;;;;;;;;;;;;;11.49;67.96;92725.75;2059163;69;20531;-67
2022/05/04 01:47:35;;;;;;;;;;;;;;;11.45;68.83;92732.66;2058766;69;20065;-67
2022/05/04 01:50:00;;;;;;;;;;;;;;;11.42;68.30;92735.97;2059082;69;20501;-67
2022/05/04 01:52:26;;;;;;;;;;;;;;;11.38;68.78;92732.91;2058958;69;20054;-68
2022/05/04 01:54:52;;;;;;;;;;;;;;;11.35;69.61;92737.69;2059149;69;20130;-68
2022/05/04 01:57:18;;;;;;;;;;;;;;;11.49;67.48;92734.94;2058928;69;20148;-68
2022/05/04 01:59:44;;;;;;;;;;;;;;;11.61;66.88;92734.94;2072043;69;20332;-70
2022/05/04 02:02:10;;;;;;;;;;;;;;;11.49;67.80;92742.69;2058753;69;20054;-68
2022/05/04 02:04:37;;;;;;;;;;;;;;;11.43;68.47;92737.44;2058922;69;20057;-69
2022/05/04 02:07:03;;;;;;;;;;;;;;;11.57;66.61;92740.34;2058871;69;20054;-68
2022/05/04 02:09:28;;;;;;;;;;;;;;;11.46;67.51;92739.03;2058880;69;20057;-69
2022/05/04 02:11:54;;;;;;;;;;;;;;;11.59;66.11;92734.78;2058792;69;20105;-68
2022/05/04 02:14:20;;;;;;;;;;;;;;;11.40;68.35;92733.00;2058941;69;20046;-68
2022/05/04 02:16:45;;;;;;;;;;;;;;;11.25;69.13;92733.53;2059020;69;20054;-67
2022/05/04 02:19:11;;;;;;;;;;;;;;;11.31;68.35;92731.81;2071914;69;20045;-67
2022/05/04 02:21:37;;;;;;;;;;;;;;;11.43;67.14;92729.69;2058684;69;20093;-67
2022/05/04 02:24:02;;;;;;;;;;;;;;;11.21;69.56;92728.41;2072001;69;20107;-68
2022/05/04 02:26:28;;;;;;;;;;;;;;;11.23;68.96;92733.44;2058921;69;20090;-67
2022/05/04 02:28:54;;;;;;;;;;;;;;;11.30;68.68;92730.34;2058924;69;20432;-68
2022/05/04 02:31:19;;;;;;;;;;;;;;;11.20;69.47;92735.38;2058901;69;20054;-69
2022/05/04 02:33:47;;;;;;;;;;;;;;;11.22;70.07;92734.75;2058887;69;20495;-72
2022/05/04 02:38:57;;;;;;;;;;;;;;;11.16;69.10;92729.50;2059010;69;20116;-69
2022/05/04 02:41:23;;;;;;;;;;;;;;;11.16;68.84;92735.88;2058543;69;20506;-72
2022/05/04 02:47:17;;;;;;;;;;;;;;;11.13;70.61;92727.91;2058987;69;20049;-68
2022/05/04 02:49:42;;;;;;;;;;;;;;;11.25;69.37;92730.72;2058763;69;20050;-69
2022/05/04 02:52:07;;;;;;;;;;;;;;;11.19;69.31;92734.66;2071891;69;20046;-73
2022/05/04 02:54:33;;;;;;;;;;;;;;;11.27;69.27;92723.13;2058944;69;20058;-73
2022/05/04 02:56:58;;;;;;;;;;;;;;;11.29;68.33;92734.50;2058797;69;20066;-72
2022/05/04 02:59:24;;;;;;;;;;;;;;;11.34;68.74;92732.66;2059010;69;20077;-69
2022/05/04 03:04:33;;;;;;;;;;;;;;;11.42;67.70;92747.97;2059018;69;20499;-67
2022/05/04 03:06:59;;;;;;;;;;;;;;;11.37;69.85;92735.00;2071553;69;20062;-67
2022/05/04 03:09:24;;;;;;;;;;;;;;;11.37;69.09;92740.63;2058845;69;20119;-70
2022/05/04 03:11:56;;;;;;;;;;;;;;;11.41;69.03;92732.41;2058740;69;20142;-70
2022/05/04 03:14:23;;;;;;;;;;;;;;;11.52;67.11;92736.53;2058922;69;20111;-72
2022/05/04 03:16:49;;;;;;;;;;;;;;;11.53;67.05;92734.47;2058875;69;20103;-70
2022/05/04 03:19:15;;;;;;;;;;;;;;;11.44;67.77;92731.16;2058928;69;20077;-68
2022/05/04 03:21:40;;;;;;;;;;;;;;;11.35;68.04;92729.22;2058797;69;20060;-66
2022/05/04 03:24:06;;;;;;;;;;;;;;;11.42;68.32;92731.06;2058805;69;20057;-69
2022/05/04 03:26:32;;;;;;;;;;;;;;;11.37;67.91;92729.34;2071661;69;20437;-69
2022/05/04 03:28:57;;;;;;;;;;;;;;;11.37;67.91;92731.44;2058791;69;20675;-70
2022/05/04 03:31:23;;;;;;;;;;;;;;;11.22;69.10;92726.31;2058756;69;20057;-72
2022/05/04 03:33:49;;;;;;;;;;;;;;;11.30;68.79;92738.06;2058967;69;20069;-71
2022/05/04 03:36:14;;;;;;;;;;;;;;;11.39;67.11;92726.66;2058705;69;20100;-68
2022/05/04 03:38:40;;;;;;;;;;;;;;;11.43;68.45;92728.97;2058926;69;20495;-67
2022/05/04 03:41:05;;;;;;;;;;;;;;;11.00;69.44;92737.00;2071901;69;20061;-68
2022/05/04 03:43:31;;;;;;;;;;;;;;;11.18;68.46;92735.28;2059067;69;20047;-68
2022/05/04 03:46:13;;;;;;;;;;;;;;;11.15;67.59;92742.88;2058991;69;20046;-68
2022/05/04 03:48:38;;;;;;;;;;;;;;;11.34;68.13;92741.84;2058964;69;20557;-68
2022/05/04 03:51:04;;;;;;;;;;;;;;;11.31;68.75;92739.53;2058901;69;20070;-68
2022/05/04 03:53:30;;;;;;;;;;;;;;;11.21;68.45;92734.03;2059175;69;20054;-69
2022/05/04 03:55:55;;;;;;;;;;;;;;;11.41;67.00;92742.97;2058540;69;20084;-72
2022/05/04 03:58:21;;;;;;;;;;;;;;;11.32;68.34;92738.94;2058838;69;20049;-69
2022/05/04 04:00:46;;;;;;;;;;;;;;;11.27;69.26;92728.78;2058951;69;20049;-72
2022/05/04 04:06:40;;;;;;;;;;;;;;;11.25;69.63;92737.09;2058987;69;20049;-68
2022/05/04 04:09:05;;;;;;;;;;;;;;;11.18;69.97;92747.28;2058875;69;20054;-68
2022/05/04 04:11:31;;;;;;;;;;;;;;;11.19;69.74;92748.00;2058825;69;20119;-72
2022/05/04 04:13:57;;;;;;;;;;;;;;;11.36;66.81;92744.03;2058915;69;20050;-68
2022/05/04 04:16:22;;;;;;;;;;;;;;;11.27;69.58;92745.69;2058841;69;20091;-73
2022/05/04 04:18:48;;;;;;;;;;;;;;;11.26;69.11;92743.47;2058815;69;20057;-71
2022/05/04 04:23:57;;;;;;;;;;;;;;;11.47;67.80;92748.22;2058835;69;20050;-73
2022/05/04 04:26:23;;;;;;;;;;;;;;;11.39;68.97;92752.00;2071814;69;20111;-71
2022/05/04 04:28:48;;;;;;;;;;;;;;;11.49;66.80;92751.13;2058905;69;20056;-70
2022/05/04 04:31:13;;;;;;;;;;;;;;;11.47;66.81;92745.41;2058949;69;20126;-70
2022/05/04 04:33:39;;;;;;;;;;;;;;;11.55;65.64;92755.06;2059043;69;20050;-69
2022/05/04 04:36:05;;;;;;;;;;;;;;;11.50;66.64;92755.41;2058926;69;20062;-69
2022/05/04 04:38:30;;;;;;;;;;;;;;;11.61;65.05;92757.50;2058830;69;20045;-69
2022/05/04 04:40:56;;;;;;;;;;;;;;;11.47;66.72;92751.75;2071855;69;20172;-68
2022/05/04 04:43:22;;;;;;;;;;;;;;;11.36;68.15;92764.53;2058777;69;20170;-69
2022/05/04 04:45:47;;;;;;;;;;;;;;;11.43;67.52;92760.72;2071577;69;20061;-74
2022/05/04 04:48:16;;;;;;;;;;;;;;;11.49;66.22;92765.22;2058551;69;20099;-73
2022/05/04 04:50:47;;;;;;;;;;;;;;;11.47;65.57;92762.31;2071814;69;20050;-72
2022/05/04 04:53:13;;;;;;;;;;;;;;;11.36;68.71;92756.09;2058813;69;20076;-71
2022/05/04 04:55:42;;;;;;;;;;;;;;;11.16;69.07;92766.13;2058734;69;20196;-73
2022/05/04 04:58:08;;;;;;;;;;;;;;;11.37;69.28;92757.53;2058775;69;20084;-70
2022/05/04 05:00:34;;;;;;;;;;;;;;;11.51;66.99;92760.47;2058938;69;20089;-73
2022/05/04 05:03:00;;;;;;;;;;;;;;;11.29;69.22;92762.69;2058782;69;20118;-69
2022/05/04 05:05:25;;;;;;;;;;;;;;;11.38;69.54;92764.66;2058794;69;20074;-69
2022/05/04 05:07:52;;;;;;;;;;;;;;;11.48;68.44;92763.78;2058460;69;20050;-69
2022/05/04 05:10:17;;;;;;;;;;;;;;;11.57;67.16;92760.81;2058647;69;20089;-69
2022/05/04 05:12:43;;;;;;;;;;;;;;;11.51;68.78;92768.19;2058721;69;20081;-69
2022/05/04 05:17:53;;;;;;;;;;;;;;;11.56;68.86;92762.16;2058770;69;20122;-70
2022/05/04 05:20:18;;;;;;;;;;;;;;;11.63;68.61;92766.06;2071921;69;20486;-69
2022/05/04 05:22:43;;;;;;;;;;;;;;;11.76;68.29;92767.50;2058679;69;20043;-74
2022/05/04 05:25:09;;;;;;;;;;;;;;;11.71;68.94;92772.91;2058662;69;20128;-73
2022/05/04 05:27:35;;;;;;;;;;;;;;;11.70;69.01;92774.25;2058824;69;20078;-70
2022/05/04 05:30:00;;;;;;;;;;;;;;;11.78;68.16;92770.44;2059234;69;20528;-74
2022/05/04 05:32:26;;;;;;;;;;;;;;;11.75;67.88;92766.03;2059218;69;20086;-73
2022/05/04 05:34:51;;;;;;;;;;;;;;;11.78;67.45;92765.53;2059248;69;20047;-72
2022/05/04 05:37:17;;;;;;;;;;;;;;;11.93;65.88;92765.00;2059241;69;20144;-72
2022/05/04 05:39:43;;;;;;;;;;;;;;;11.91;67.58;92772.63;2059206;69;20147;-70
2022/05/04 05:42:08;;;;;;;;;;;;;;;11.89;67.28;92766.88;2059118;69;20053;-70
2022/05/04 05:44:34;;;;;;;;;;;;;;;11.97;67.99;92766.59;2059260;69;20050;-69
2022/05/04 05:46:59;;;;;;;;;;;;;;;12.00;68.06;92771.00;2059361;69;20109;-69
2022/05/04 05:49:25;;;;;;;;;;;;;;;12.00;68.73;92774.53;2059198;69;20070;-69
2022/05/04 05:51:51;;;;;;;;;;;;;;;12.01;69.15;92780.94;2059277;69;20538;-70
2022/05/04 05:54:16;;;;;;;;;;;;;;;12.01;69.43;92778.13;2059218;69;20042;-68
2022/05/04 05:56:41;;;;;;;;;;;;;;;12.21;66.87;92779.25;2059104;69;20046;-72
2022/05/04 05:59:07;;;;;;;;;;;;;;;12.23;68.56;92775.78;2059262;69;20061;-72
2022/05/04 06:01:32;;;;;;;;;;;;;;;12.33;68.20;92779.19;2059092;69;20151;-72
2022/05/04 06:03:58;;;;;;;;;;;;;;;12.27;66.07;92770.38;2059182;69;20050;-73
2022/05/04 06:06:23;;;;;;;;;;;;;;;12.45;65.46;92774.94;2059181;69;20102;-74
2022/05/04 06:08:49;;;;;;;;;;;;;;;12.22;64.76;92775.06;2059162;69;20093;-70
2022/05/04 06:11:14;;;;;;;;;;;;;;;12.23;65.68;92779.34;2059078;69;20592;-73
2022/05/04 06:13:39;;;;;;;;;;;;;;;12.47;64.97;92774.34;2059086;69;20050;-70
2022/05/04 06:16:05;;;;;;;;;;;;;;;12.69;65.21;92777.63;2072258;69;20074;-70
2022/05/04 06:18:30;;;;;;;;;;;;;;;12.80;63.02;92781.75;2059115;69;20081;-70
2022/05/04 06:20:58;;;;;;;;;;;;;;;12.80;63.18;92779.66;2059131;69;20062;-70
2022/05/04 06:23:23;;;;;;;;;;;;;;;12.76;63.62;92773.06;2059093;69;20042;-69
2022/05/04 06:25:49;;;;;;;;;;;;;;;12.86;63.81;92773.59;2072196;69;20046;-70
2022/05/04 06:28:14;;;;;;;;;;;;;;;12.84;64.78;92773.50;2059312;69;20081;-70
2022/05/04 06:36:08;;;;;;;;;;;;;;;13.15;62.73;92775.84;2059190;69;20107;-70
2022/05/04 06:38:33;;;;;;;;;;;;;;;13.04;63.09;92763.25;2058957;69;20422;-73
2022/05/04 06:41:00;;;;;;;;;;;;;;;13.24;64.26;92774.94;2058988;69;20050;-70
2022/05/04 06:43:26;;;;;;;;;;;;;;;13.12;63.53;92774.25;2059174;69;20082;-72
2022/05/04 06:45:52;;;;;;;;;;;;;;;12.92;63.64;92777.50;2072075;69;20195;-73
2022/05/04 06:48:17;;;;;;;;;;;;;;;13.44;61.03;92775.25;2059026;69;20537;-73
2022/05/04 06:50:43;;;;;;;;;;;;;;;13.60;61.88;92784.53;2072006;69;20061;-69
2022/05/04 06:53:08;;;;;;;;;;;;;;;13.83;60.58;92783.56;2058877;69;20116;-69
2022/05/04 06:55:33;;;;;;;;;;;;;;;13.82;59.94;92784.22;2059052;69;20492;-70
2022/05/04 06:57:59;;;;;;;;;;;;;;;13.57;60.69;92774.50;2072059;69;20056;-71
2022/05/04 07:00:24;;;;;;;;;;;;;;;13.73;60.64;92774.56;2072005;69;20076;-69
2022/05/04 07:02:50;;;;;;;;;;;;;;;14.01;59.63;92769.59;2058843;69;20057;-70
2022/05/04 07:05:15;;;;;;;;;;;;;;;14.22;58.86;92772.06;2059019;69;20144;-70
2022/05/04 07:07:41;;;;;;;;;;;;;;;14.29;58.79;92766.69;2058980;69;20041;-71
2022/05/04 07:10:07;;;;;;;;;;;;;;;14.16;59.08;92763.28;2058989;69;20054;-71
2022/05/04 07:12:33;;;;;;;;;;;;;;;14.20;59.15;92763.47;2059015;69;20050;-70
2022/05/04 07:14:58;;;;;;;;;;;;;;;14.43;57.87;92762.44;2058986;69;20042;-70
2022/05/04 07:17:24;;;;;;;;;;;;;;;14.91;56.79;92771.03;2058681;69;20038;-70
2022/05/04 07:19:49;;;;;;;;;;;;;;;15.10;57.09;92761.97;2059004;69;20482;-73
2022/05/04 07:22:15;;;;;;;;;;;;;;;15.47;57.43;92770.00;2059031;69;20105;-71
2022/05/04 07:24:40;;;;;;;;;;;;;;;15.37;55.56;92766.00;2072082;69;20061;-71
2022/05/04 07:27:06;;;;;;;;;;;;;;;15.64;55.79;92757.28;2058906;69;20110;-71
2022/05/04 07:29:32;;;;;;;;;;;;;;;15.95;54.42;92759.31;2058998;69;20490;-70
2022/05/04 07:31:58;;;;;;;;;;;;;;;15.85;52.69;92760.97;2058988;69;20075;-71
2022/05/04 07:34:23;;;;;;;;;;;;;;;15.74;53.59;92762.66;2059213;69;20042;-70
2022/05/04 07:36:48;;;;;;;;;;;;;;;15.73;53.94;92758.38;2059109;69;20081;-71
2022/05/04 07:44:42;;;;;;;;;;;;;;;16.53;52.07;92748.13;2059157;69;20202;-73
2022/05/04 07:47:07;;;;;;;;;;;;;;;17.05;50.84;92748.03;2058991;69;20490;-72
2022/05/04 07:49:33;;;;;;;;;;;;;;;17.22;52.68;92747.22;2058890;69;20091;-72
2022/05/04 07:51:59;;;;;;;;;;;;;;;17.81;50.75;92748.66;2058981;69;20050;-73
2022/05/04 07:54:28;;;;;;;;;;;;;;;17.70;49.40;92750.38;2058930;69;20088;-74
2022/05/04 07:56:54;;;;;;;;;;;;;;;18.04;49.98;92745.91;2058815;69;20474;-73
2022/05/04 07:59:19;;;;;;;;;;;;;;;18.66;49.72;92747.91;2058913;69;20111;-73
2022/05/04 08:04:29;;;;;;;;;;;;;;;18.71;47.40;92744.53;2071953;69;20049;-73
2022/05/04 08:06:54;;;;;;;;;;;;;;;18.01;49.63;92746.50;2058950;69;20069;-74
2022/05/04 08:09:20;;;;;;;;;;;;;;;18.79;48.13;92744.06;2058893;69;20142;-74
2022/05/04 08:11:45;;;;;;;;;;;;;;;18.87;47.33;92747.16;2058884;69;20047;-73
2022/05/04 08:14:12;;;;;;;;;;;;;;;18.56;48.46;92742.63;2059002;69;20050;-74
2022/05/04 08:20:07;;;;;;;;;;;;;;;18.66;48.40;92739.34;2056504;69;20069;-74
2022/05/04 08:22:32;;;;;;;;;;;;;;;18.26;47.19;92737.38;2058622;69;20061;-74
2022/05/04 08:24:58;;;;;;;;;;;;;;;19.07;47.69;92738.50;2058885;69;20110;-72
2022/05/04 08:27:24;;;;;;;;;;;;;;;19.34;47.24;92742.13;2058730;69;20093;-73
2022/05/04 08:29:49;;;;;;;;;;;;;;;19.15;45.26;92735.13;2058935;69;20062;-72
2022/05/04 08:35:44;;;;;;;;;;;;;;;20.46;44.09;92737.28;2058899;69;20196;-72
2022/05/04 08:38:09;;;;;;;;;;;;;;;20.05;42.99;92732.69;2058940;69;20149;-73
2022/05/04 08:40:36;;;;;;;;;;;;;;;19.74;43.57;92734.00;2058769;69;20070;-72
2022/05/04 08:43:05;;;;;;;;;;;;;;;19.20;44.47;92723.19;2058944;69;20050;-72
2022/05/04 08:45:31;;;;;;;;;;;;;;;18.34;46.65;92724.78;2058789;69;20052;-74
2022/05/04 08:47:57;;;;;;;;;;;;;;;18.65;45.97;92723.66;2058938;69;20054;-73
2022/05/04 08:50:23;;;;;;;;;;;;;;;19.29;43.60;92724.16;2058808;69;20500;-71
2022/05/04 08:52:53;;;;;;;;;;;;;;;19.61;43.98;92727.22;2071897;69;20053;-73
2022/05/04 08:55:20;;;;;;;;;;;;;;;19.91;42.65;92726.59;2071786;69;20145;-72
2022/05/04 08:57:46;;;;;;;;;;;;;;;19.77;43.30;92718.38;2058907;69;20069;-75
2022/05/04 09:00:12;;;;;;;;;;;;;;;20.29;41.88;92726.84;2058908;69;20050;-73
2022/05/04 09:02:38;;;;;;;;;;;;;;;20.46;42.36;92713.69;2059076;69;20098;-74
2022/05/04 09:05:14;;;;;;;;;;;;;;;20.10;41.44;92724.94;2059270;69;20474;-75
2022/05/04 09:07:39;;;;;;;;;;;;;;;19.80;43.03;92717.75;2058982;69;20149;-74
2022/05/04 09:10:06;;;;;;;;;;;;;;;20.22;42.41;92717.41;2059329;69;20096;-72
2022/05/04 09:12:32;;;;;;;;;;;;;;;20.34;41.84;92711.25;2059169;69;20054;-73
2022/05/04 09:14:57;;;;;;;;;;;;;;;20.24;42.16;92711.00;2059405;69;20050;-72
2022/05/04 09:17:24;;;;;;;;;;;;;;;20.50;42.44;92703.13;2072303;69;20054;-72
2022/05/04 09:22:38;;;;;;;;;;;;;;;20.55;42.05;92698.94;2059217;69;20118;-73
2022/05/04 09:25:07;;;;;;;;;;;;;;;20.36;41.06;92696.31;2059228;69;20062;-73
2022/05/04 09:27:37;;;;;;;;;;;;;;;19.76;41.39;92689.09;2072280;69;20046;-72
2022/05/04 09:30:04;;;;;;;;;;;;;;;19.46;43.18;92693.94;2059510;69;20053;-70
2022/05/04 09:32:30;;;;;;;;;;;;;;;18.88;42.87;92690.84;2072280;69;20057;-71
2022/05/04 09:34:55;;;;;;;;;;;;;;;19.75;42.65;92681.19;2072441;69;20094;-72
2022/05/04 09:45:36;;;;;;;;;;;;;;;20.04;41.64;92679.78;2058912;69;20080;-69
2022/05/04 09:48:02;;;;;;;;;;;;;;;19.69;43.22;92676.03;2072282;69;20046;-74
2022/05/04 09:50:28;;;;;;;;;;;;;;;20.30;41.48;92674.00;2059220;69;20046;-73
2022/05/04 09:52:56;;;;;;;;;;;;;;;20.54;41.20;92668.19;2059270;69;20061;-70
2022/05/04 09:58:51;;;;;;;;;;;;;;;20.00;40.52;92671.13;2059261;69;20044;-70
2022/05/04 10:01:16;;;;;;;;;;;;;;;20.30;40.27;92656.88;2059211;69;20057;-74
2022/05/04 10:03:43;;;;;;;;;;;;;;;20.74;39.85;92659.31;2059181;69;20042;-74
2022/05/04 10:06:09;;;;;;;;;;;;;;;20.97;40.27;92655.53;2059170;69;20105;-70
2022/05/04 10:08:34;;;;;;;;;;;;;;;21.15;39.44;92658.06;2059174;69;20208;-71
2022/05/04 10:11:00;;;;;;;;;;;;;;;20.99;39.66;92655.59;2059060;69;20054;-73
2022/05/04 10:13:26;;;;;;;;;;;;;;;21.49;39.27;92646.63;2059007;69;20074;-74
2022/05/04 10:15:53;;;;;;;;;;;;;;;21.72;39.43;92642.03;2059137;69;20049;-74
2022/05/04 10:18:21;;;;;;;;;;;;;;;22.02;39.31;92641.84;2059148;69;20058;-69
2022/05/04 10:21:10;;;;;;;;;;;;;;;22.51;37.38;92639.81;2059185;69;20062;-75
2022/05/04 10:23:38;;;;;;;;;;;;;;;22.48;37.49;92635.44;2057195;69;20074;-69
2022/05/04 10:26:04;;;;;;;;;;;;;;;23.15;35.67;92632.84;2059034;69;20138;-75
2022/05/04 10:28:35;;;;;;;;;;;;;;;22.56;34.84;92632.72;2059154;69;20045;-69
2022/05/04 10:31:00;;;;;;;;;;;;;;;22.48;34.92;92626.13;2059171;69;20082;-70
2022/05/04 10:33:33;;;;;;;;;;;;;;;23.89;34.39;92619.34;2059118;69;20057;-71
2022/05/04 10:36:19;;;;;;;;;;;;;;;23.01;34.48;92621.91;2059129;69;20058;-70
2022/05/04 10:38:45;;;;;;;;;;;;;;;24.29;33.21;92616.84;2059022;69;20062;-70
2022/05/04 10:41:12;;;;;;;;;;;;;;;25.23;31.75;92613.88;2059037;69;20058;-69
2022/05/04 10:43:38;;;;;;;;;;;;;;;23.93;32.32;92605.00;2059107;69;20056;-71
2022/05/04 10:46:07;;;;;;;;;;;;;;;25.07;32.77;92606.63;2059219;69;20043;-70
2022/05/04 10:48:33;;;;;;;;;;;;;;;25.92;32.23;92608.38;2058576;69;20141;-70
2022/05/04 10:51:02;;;;;;;;;;;;;;;25.98;31.97;92607.66;2071970;69;20049;-70
2022/05/04 10:53:28;;;;;;;;;;;;;;;26.36;30.49;92593.28;2058811;69;20053;-71
2022/05/04 10:56:02;;;;;;;;;;;;;;;25.54;27.49;92603.22;2058770;69;20046;-75
2022/05/04 10:58:36;;;;;;;;;;;;;;;27.39;27.79;92605.44;2058995;69;20093;-73
2022/05/04 11:01:03;;;;;;;;;;;;;;;28.92;25.67;92603.78;2072154;69;20057;-70
2022/05/04 11:03:33;;;;;;;;;;;;;;;28.22;26.99;92594.91;2059032;69;20077;-78
2022/05/04 11:06:02;;;;;;;;;;;;;;;28.06;25.23;92598.63;2072040;69;20505;-71
2022/05/04 11:08:33;;;;;;;;;;;;;;;27.99;27.46;92600.81;2058665;69;20528;-70
2022/05/04 11:10:58;;;;;;;;;;;;;;;28.70;25.30;92599.63;2058787;69;20094;-70
2022/05/04 11:13:24;;;;;;;;;;;;;;;27.91;25.90;92592.22;2058695;69;20085;-70
2022/05/04 11:15:55;;;;;;;;;;;;;;;26.87;26.89;92592.56;2058933;69;20465;-71
2022/05/04 11:21:49;;;;;;;;;;;;;;;28.75;25.20;92586.53;2056570;69;20521;-73
2022/05/04 11:24:16;;;;;;;;;;;;;;;29.23;24.89;92575.94;2058669;69;20184;-72
2022/05/04 11:26:44;;;;;;;;;;;;;;;28.71;24.28;92574.25;2071988;69;20111;-71
2022/05/04 11:29:14;;;;;;;;;;;;;;;26.61;26.39;92570.19;2058949;69;20049;-72
2022/05/04 11:31:43;;;;;;;;;;;;;;;26.09;26.17;92568.75;2058809;69;20177;-74
2022/05/04 11:34:09;;;;;;;;;;;;;;;25.07;27.75;92566.31;2058890;69;20050;-74
2022/05/04 11:36:34;;;;;;;;;;;;;;;25.46;28.18;92563.56;2058445;69;20061;-70
2022/05/04 11:39:02;;;;;;;;;;;;;;;24.75;27.70;92574.75;2058901;69;20053;-71
2022/05/04 11:41:28;;;;;;;;;;;;;;;24.63;28.47;92566.03;2071624;69;20057;-71
2022/05/04 11:43:54;;;;;;;;;;;;;;;24.44;26.68;92557.28;2071774;69;20141;-71
2022/05/04 11:46:20;;;;;;;;;;;;;;;24.53;27.42;92558.06;2058892;69;20112;-72
2022/05/04 11:48:46;;;;;;;;;;;;;;;24.23;28.86;92561.41;2071840;69;20140;-74
2022/05/04 11:51:12;;;;;;;;;;;;;;;24.32;28.99;92560.75;2058785;69;20042;-74
2022/05/04 11:53:38;;;;;;;;;;;;;;;23.58;27.84;92555.78;2058601;69;20578;-75
2022/05/04 11:56:05;;;;;;;;;;;;;;;24.01;28.60;92561.97;2071512;69;20094;-75
2022/05/04 11:58:31;;;;;;;;;;;;;;;24.05;28.37;92556.97;2071711;69;20106;-75
2022/05/04 12:00:56;;;;;;;;;;;;;;;23.99;28.72;92550.44;2058675;69;20494;-71
2022/05/04 12:03:23;;;;;;;;;;;;;;;23.75;29.04;92548.06;2058792;69;20066;-71
2022/05/04 12:05:50;;;;;;;;;;;;;;;24.45;28.88;92547.22;2058713;69;20080;-70
2022/05/04 12:08:17;;;;;;;;;;;;;;;24.64;28.75;92547.31;2058677;69;20085;-69
2022/05/04 12:10:42;;;;;;;;;;;;;;;27.75;25.92;92540.94;2058635;69;20057;-71
2022/05/04 12:13:08;;;;;;;;;;;;;;;25.09;27.84;92536.78;2058741;69;20139;-70
2022/05/04 12:15:34;;;;;;;;;;;;;;;25.08;27.09;92538.94;2058914;69;20200;-71
2022/05/04 12:18:01;;;;;;;;;;;;;;;27.23;26.32;92530.38;2071938;69;20054;-70
2022/05/04 12:20:27;;;;;;;;;;;;;;;26.84;25.89;92542.00;2058783;69;20525;-72
2022/05/04 12:22:53;;;;;;;;;;;;;;;27.11;26.57;92528.94;2058415;69;20057;-74
2022/05/04 12:33:08;;;;;;;;;;;;;;;25.17;26.12;92533.94;2058521;69;20061;-70
2022/05/04 12:34:21;;;;;;;;;;;;;;;24.82;27.50;92530.16;2058682;69;20046;-70
2022/05/04 12:36:47;;;;;;;;;;;;;;;23.07;27.39;92532.97;2058866;69;20049;-70
2022/05/04 12:39:12;;;;;;;;;;;;;;;22.53;28.63;92522.22;2059689;69;20050;-70
2022/05/04 12:41:38;;;;;;;;;;;;;;;23.04;28.51;92520.00;2059727;69;20049;-70
2022/05/04 12:44:04;;;;;;;;;;;;;;;23.05;28.62;92518.59;2059663;69;20424;-73
2022/05/04 12:46:29;;;;;;;;;;;;;;;22.91;29.62;92520.56;2059865;69;20057;-73
2022/05/04 12:48:56;;;;;;;;;;;;;;;23.55;29.03;92520.56;2059818;69;20073;-73
2022/05/04 12:51:24;;;;;;;;;;;;;;;22.68;29.94;92519.53;2059915;69;20060;-73
2022/05/04 12:53:50;;;;;;;;;;;;;;;23.24;28.73;92521.69;2072746;69;20501;-73
2022/05/04 12:59:01;;;;;;;;;;;;;;;23.00;29.37;92519.25;2059778;69;20137;-74
2022/05/04 13:01:28;;;;;;;;;;;;;;;21.94;29.75;92515.59;2059641;69;20057;-73
2022/05/04 13:03:53;;;;;;;;;;;;;;;22.57;30.13;92513.66;2059595;69;20078;-71
2022/05/04 13:06:19;;;;;;;;;;;;;;;22.70;28.83;92519.56;2059721;69;20133;-69
2022/05/04 13:12:14;;;;;;;;;;;;;;;20.84;32.74;92533.66;2059758;69;20049;-73
2022/05/04 13:14:40;;;;;;;;;;;;;;;20.15;34.82;92555.03;2059638;69;20054;-73
2022/05/04 13:17:06;;;;;;;;;;;;;;;20.09;35.46;92567.06;2059519;69;20074;-70
2022/05/04 13:19:32;;;;;;;;;;;;;;;19.77;37.87;92564.88;2059777;69;20466;-71
2022/05/04 13:21:57;;;;;;;;;;;;;;;19.91;38.56;92584.47;2059711;69;20094;-73
2022/05/04 13:24:23;;;;;;;;;;;;;;;19.43;41.90;92596.13;2059955;69;20080;-72
2022/05/04 13:26:48;;;;;;;;;;;;;;;19.07;40.89;92607.25;2059708;69;20093;-71
2022/05/04 13:29:14;;;;;;;;;;;;;;;15.62;55.79;92595.41;2059901;69;20207;-72
2022/05/04 13:35:08;;;;;;;;;;;;;;;17.90;57.98;92603.03;2059739;69;20115;-71
2022/05/04 13:37:33;;;;;;;;;;;;;;;17.21;61.28;92601.44;2059946;69;20058;-71
2022/05/04 13:39:59;;;;;;;;;;;;;;;17.83;61.21;92612.78;2059747;69;20050;-71
2022/05/04 13:42:24;;;;;;;;;;;;;;;18.68;60.26;92617.53;2072858;69;20070;-70
2022/05/04 13:44:49;;;;;;;;;;;;;;;17.90;60.50;92625.81;2059742;69;20042;-69
2022/05/04 13:47:15;;;;;;;;;;;;;;;17.74;55.94;92637.41;2059860;69;20085;-70
2022/05/04 13:49:40;;;;;;;;;;;;;;;17.26;55.55;92636.44;2059094;69;20066;-70
2022/05/04 13:54:50;;;;;;;;;;;;;;;16.57;58.32;92639.59;2059342;69;20521;-70
2022/05/04 13:57:17;;;;;;;;;;;;;;;16.34;59.82;92661.47;2059074;69;20066;-70
2022/05/04 13:59:42;;;;;;;;;;;;;;;16.38;60.05;92663.72;2059241;69;20054;-70
2022/05/04 14:02:09;;;;;;;;;;;;;;;16.88;58.79;92650.75;2059116;69;20074;-72
2022/05/04 14:04:34;;;;;;;;;;;;;;;17.02;56.54;92651.25;2059123;69;20575;-70